Time;durP1;ratioP1;P1;durP2;ratioP2;P2;SDS_P1;SDS_P2;PMS_P1;PMS_P2;Temp;Humidity;BMP_temperature;BMP_pressure;BME280_temperature;BME280_humidity;BME280_pressure;Samples;Min_cycle;Max_cycle;Signal;HPM_P1;HPM_P2
2022/11/11 20:09:31;;;;;;;20.45;12.73;;;;;;;7.71;86.28;99784.88;6170722;23;20029;-63
2022/11/11 20:11:56;;;;;;;17.92;11.07;;;;;;;7.68;86.81;99784.97;6157290;23;20041;-65
2022/11/11 20:14:21;;;;;;;18.08;10.75;;;;;;;7.70;86.02;99790.13;6184470;23;20001;-66
2022/11/11 20:16:47;;;;;;;20.75;12.52;;;;;;;7.66;85.28;99789.38;6156419;23;20094;-64
2022/11/11 20:19:14;;;;;;;18.23;11.88;;;;;;;7.65;86.14;99800.75;6157775;23;20083;-64
2022/11/11 20:21:43;;;;;;;17.80;10.70;;;;;;;7.64;86.02;99806.88;6183147;23;20610;-64
2022/11/11 20:24:08;;;;;;;18.40;11.38;;;;;;;7.60;86.63;99795.66;6155960;23;20088;-64
2022/11/11 20:26:34;;;;;;;19.50;11.50;;;;;;;7.58;86.79;99805.28;6183333;23;20009;-64
2022/11/11 20:29:00;;;;;;;18.70;10.85;;;;;;;7.54;86.38;99808.91;6156436;23;20015;-64
2022/11/11 20:31:27;;;;;;;16.80;10.18;;;;;;;7.52;86.50;99809.84;6158007;23;20072;-64
2022/11/11 20:33:52;;;;;;;18.88;10.93;;;;;;;7.48;86.61;99816.06;6158303;23;20011;-64
2022/11/11 20:36:18;;;;;;;16.38;10.55;;;;;;;7.48;87.62;99816.91;6157749;23;20036;-64
2022/11/11 20:38:43;;;;;;;19.50;11.88;;;;;;;7.46;86.82;99817.88;6183834;23;20427;-64
2022/11/11 20:41:16;;;;;;;22.70;13.98;;;;;;;7.43;87.35;99813.59;6182909;23;20426;-64
2022/11/11 20:43:43;;;;;;;20.73;13.25;;;;;;;7.42;87.46;99813.63;6132066;23;20009;-64
2022/11/11 20:46:10;;;;;;;20.00;13.75;;;;;;;7.37;87.05;99809.41;6133392;23;20088;-64
2022/11/11 20:48:36;;;;;;;19.38;11.68;;;;;;;7.36;87.75;99810.31;6157541;23;20005;-64
2022/11/11 20:51:06;;;;;;;17.98;11.20;;;;;;;7.32;88.29;99800.84;6157200;23;20013;-64
2022/11/11 20:53:31;;;;;;;20.98;11.63;;;;;;;7.32;87.85;99808.69;6133117;23;20005;-64
2022/11/11 20:56:04;;;;;;;19.02;10.70;;;;;;;7.30;88.36;99801.81;6183302;23;20084;-64
2022/11/11 20:58:30;;;;;;;20.10;11.73;;;;;;;7.30;87.88;99800.06;6157506;23;20055;-64
2022/11/11 21:01:06;;;;;;;16.75;10.13;;;;;;;7.29;87.87;99797.47;6158006;23;20056;-64
2022/11/11 21:03:31;;;;;;;17.40;10.25;;;;;;;7.26;88.13;99793.22;6158105;23;20011;-64
2022/11/11 21:06:04;;;;;;;19.15;11.15;;;;;;;7.25;88.07;99794.09;6157667;23;20009;-64
2022/11/11 21:08:29;;;;;;;21.77;12.65;;;;;;;7.21;87.73;99782.06;6157450;23;20009;-64
2022/11/11 21:10:56;;;;;;;20.80;12.77;;;;;;;7.17;88.38;99784.81;6183571;23;20001;-65
2022/11/11 21:13:21;;;;;;;39.75;19.38;;;;;;;7.11;88.52;99780.63;6156418;23;20031;-64
2022/11/11 21:15:47;;;;;;;40.78;20.77;;;;;;;7.09;88.60;99782.44;6183846;23;20427;-64
2022/11/11 21:18:12;;;;;;;32.80;16.88;;;;;;;7.07;88.55;99785.06;6183771;23;20069;-64
2022/11/11 21:20:37;;;;;;;24.17;13.50;;;;;;;7.08;89.01;99781.56;6183376;23;20405;-64
2022/11/11 21:23:03;;;;;;;24.48;13.52;;;;;;;7.05;88.35;99780.78;6183810;23;20004;-64
2022/11/11 21:25:30;;;;;;;28.13;16.52;;;;;;;7.03;88.58;99790.44;6183833;23;20486;-64
2022/11/11 21:27:56;;;;;;;27.27;15.73;;;;;;;7.04;89.06;99789.53;6183168;23;20005;-64
2022/11/11 21:30:21;;;;;;;25.77;15.75;;;;;;;7.05;88.32;99786.84;6183806;23;20076;-64
2022/11/11 21:32:46;;;;;;;36.53;18.25;;;;;;;7.04;88.42;99784.31;6183529;23;19997;-65
2022/11/11 21:35:12;;;;;;;34.13;19.05;;;;;;;7.05;88.15;99788.63;6156538;23;20080;-65
2022/11/11 21:37:37;;;;;;;29.02;15.80;;;;;;;7.08;88.87;99793.75;6156501;23;20005;-65
2022/11/11 21:40:03;;;;;;;27.73;15.77;;;;;;;7.06;87.94;99787.75;6183641;23;20072;-65
2022/11/11 21:42:28;;;;;;;25.10;16.10;;;;;;;7.03;88.01;99793.03;6183056;23;20041;-65
2022/11/11 21:44:53;;;;;;;26.27;17.25;;;;;;;7.01;88.24;99800.03;6183248;23;20020;-65
2022/11/11 21:47:19;;;;;;;27.95;18.00;;;;;;;7.02;87.66;99796.53;6157294;23;20084;-65
2022/11/11 21:49:44;;;;;;;29.88;17.60;;;;;;;7.01;87.67;99787.00;6181754;23;20499;-65
2022/11/11 21:52:09;;;;;;;26.23;16.95;;;;;;;7.00;88.05;99791.38;6183104;23;20084;-65
2022/11/11 21:54:35;;;;;;;25.63;14.93;;;;;;;6.97;88.17;99795.81;6182235;23;20092;-65
2022/11/11 21:57:00;;;;;;;20.38;12.70;;;;;;;6.97;87.95;99795.81;6182701;23;20072;-66
2022/11/11 21:59:25;;;;;;;19.50;11.18;;;;;;;6.93;88.08;99789.84;6183550;23;20087;-65
2022/11/11 22:01:51;;;;;;;21.73;11.10;;;;;;;6.96;89.08;99792.38;6183653;23;20080;-65
2022/11/11 22:04:16;;;;;;;16.00;9.57;;;;;;;7.16;92.85;99789.19;6183186;23;20004;-65
2022/11/11 22:06:42;;;;;;;16.73;9.10;;;;;;;7.42;94.88;99790.16;6183769;23;20426;-65
2022/11/11 22:09:07;;;;;;;18.83;10.82;;;;;;;7.65;95.89;99781.59;6183512;23;20502;-66
2022/11/11 22:11:33;;;;;;;16.75;9.32;;;;;;;7.90;96.24;99792.13;6183427;23;20426;-66
